Time,TemperatureF,DewpointF,PressureIn,WindDirection,WindDirectionDegrees,WindSpeedMPH,WindSpeedGustMPH,Humidity,HourlyPrecipIn,Conditions,Clouds,dailyrainin,SoftwareType,DateUTC
2013-07-23 00:11:00,72.0,72.0,-100.00,South,186,1.0,1.0,99,0.00,,,0.53,,2013-07-23 05:11:00,
2013-07-23 00:22:00,72.0,72.0,-100.00,South,186,1.0,1.0,99,0.00,,,0.53,,2013-07-23 05:22:00,
2013-07-23 00:33:00,72.0,72.0,-100.00,South,186,1.0,1.0,99,0.00,,,0.53,,2013-07-23 05:33:00,
2013-07-23 00:44:00,72.0,72.0,-100.00,South,186,1.0,1.0,99,0.00,,,0.53,,2013-07-23 05:44:00,
2013-07-23 01:11:00,73.0,73.0,-100.00,West,268,1.0,1.0,99,0.00,,,0.53,,2013-07-23 06:11:00,
2013-07-23 01:22:00,73.0,73.0,-100.00,West,268,1.0,1.0,99,0.00,,,0.53,,2013-07-23 06:22:00,
2013-07-23 01:33:00,73.0,73.0,-100.00,West,268,1.0,1.0,99,0.00,,,0.53,,2013-07-23 06:33:00,
2013-07-23 01:42:00,73.0,73.0,-100.00,West,268,1.0,1.0,99,0.00,,,0.53,,2013-07-23 06:42:00,
2013-07-23 02:12:00,76.0,76.0,-100.00,NW,312,3.0,7.0,99,0.00,,,0.53,,2013-07-23 07:12:00,
2013-07-23 02:22:00,76.0,76.0,-100.00,NW,312,3.0,7.0,99,0.00,,,0.53,,2013-07-23 07:22:00,
2013-07-23 02:33:00,76.0,76.0,-100.00,NW,312,3.0,7.0,99,0.00,,,0.53,,2013-07-23 07:33:00,
2013-07-23 02:42:00,76.0,76.0,-100.00,NW,312,3.0,7.0,99,0.00,,,0.53,,2013-07-23 07:42:00,
2013-07-23 03:11:00,75.0,75.0,-100.00,WNW,297,1.0,4.0,99,0.00,,,0.53,,2013-07-23 08:11:00,
2013-07-23 03:22:00,75.0,75.0,-100.00,WNW,297,1.0,4.0,99,0.00,,,0.53,,2013-07-23 08:22:00,
2013-07-23 03:33:00,75.0,75.0,-100.00,WNW,297,1.0,4.0,99,0.00,,,0.53,,2013-07-23 08:33:00,
2013-07-23 03:43:00,75.0,75.0,-100.00,WNW,297,1.0,4.0,99,0.00,,,0.53,,2013-07-23 08:43:00,
2013-07-23 04:11:00,76.0,76.0,-100.00,WNW,284,3.0,5.0,99,0.00,,,0.53,,2013-07-23 09:11:00,
2013-07-23 04:22:00,76.0,76.0,-100.00,WNW,284,3.0,5.0,99,0.00,,,0.53,,2013-07-23 09:22:00,
2013-07-23 04:33:00,76.0,76.0,-100.00,WNW,284,3.0,5.0,99,0.00,,,0.53,,2013-07-23 09:33:00,
2013-07-23 04:42:00,76.0,76.0,-100.00,WNW,284,3.0,5.0,99,0.00,,,0.53,,2013-07-23 09:42:00,
2013-07-23 05:11:00,76.0,76.0,-100.00,WNW,283,3.0,7.0,99,0.00,,,0.53,,2013-07-23 10:11:00,
2013-07-23 05:22:00,76.0,76.0,-100.00,WNW,283,3.0,7.0,99,0.00,,,0.53,,2013-07-23 10:22:00,
2013-07-23 05:32:00,76.0,76.0,-100.00,WNW,283,3.0,7.0,99,0.00,,,0.53,,2013-07-23 10:32:00,
2013-07-23 05:44:00,76.0,76.0,-100.00,WNW,283,3.0,7.0,99,0.00,,,0.53,,2013-07-23 10:44:00,
2013-07-23 06:12:00,76.0,76.0,-100.00,WNW,302,2.0,5.0,99,0.00,,,0.53,,2013-07-23 11:12:00,
2013-07-23 06:22:00,76.0,76.0,-100.00,WNW,302,2.0,5.0,99,0.00,,,0.53,,2013-07-23 11:22:00,
2013-07-23 06:32:00,76.0,76.0,-100.00,WNW,302,2.0,5.0,99,0.00,,,0.53,,2013-07-23 11:32:00,
2013-07-23 06:43:00,76.0,76.0,-100.00,WNW,302,2.0,5.0,99,0.00,,,0.53,,2013-07-23 11:43:00,
2013-07-23 07:11:00,76.0,76.0,-100.00,West,266,2.0,5.0,99,0.00,,,0.53,,2013-07-23 12:11:00,
2013-07-23 07:22:00,76.0,76.0,-100.00,West,266,2.0,5.0,99,0.00,,,0.53,,2013-07-23 12:22:00,
2013-07-23 07:33:00,76.0,76.0,-100.00,West,266,2.0,5.0,99,0.00,,,0.53,,2013-07-23 12:33:00,
2013-07-23 07:43:00,76.0,76.0,-100.00,West,266,2.0,5.0,99,0.00,,,0.53,,2013-07-23 12:43:00,
2013-07-23 08:11:00,78.0,78.0,-100.00,WNW,282,4.0,6.0,99,0.00,,,0.53,,2013-07-23 13:11:00,
2013-07-23 08:22:00,78.0,78.0,-100.00,WNW,282,4.0,6.0,99,0.00,,,0.53,,2013-07-23 13:22:00,
2013-07-23 08:32:00,78.0,78.0,-100.00,WNW,282,4.0,6.0,99,0.00,,,0.53,,2013-07-23 13:32:00,
2013-07-23 08:43:00,78.0,78.0,-100.00,WNW,282,4.0,6.0,99,0.00,,,0.53,,2013-07-23 13:43:00,
2013-07-23 09:12:00,80.0,79.0,-100.00,WNW,286,4.0,8.0,96,0.00,,,0.53,,2013-07-23 14:12:00,
2013-07-23 09:22:00,80.0,79.0,-100.00,WNW,286,4.0,8.0,96,0.00,,,0.53,,2013-07-23 14:22:00,
2013-07-23 09:33:00,80.0,79.0,-100.00,WNW,286,4.0,8.0,96,0.00,,,0.53,,2013-07-23 14:33:00,
2013-07-23 09:44:00,80.0,79.0,-100.00,WNW,286,4.0,8.0,96,0.00,,,0.53,,2013-07-23 14:44:00,
2013-07-23 10:11:00,83.0,78.0,-100.00,WNW,294,6.0,12.0,86,0.00,,,0.53,,2013-07-23 15:11:00,
2013-07-23 10:24:00,83.0,78.0,-100.00,WNW,294,6.0,12.0,86,0.00,,,0.53,,2013-07-23 15:24:00,
2013-07-23 10:32:00,83.0,78.0,-100.00,WNW,294,6.0,12.0,86,0.00,,,0.53,,2013-07-23 15:32:00,
2013-07-23 10:43:00,83.0,78.0,-100.00,WNW,294,6.0,12.0,86,0.00,,,0.53,,2013-07-23 15:43:00,
2013-07-23 11:12:00,86.0,78.0,-100.00,WNW,290,5.0,12.0,77,0.00,,,0.53,,2013-07-23 16:12:00,
2013-07-23 11:22:00,86.0,78.0,-100.00,WNW,290,5.0,12.0,77,0.00,,,0.53,,2013-07-23 16:22:00,
2013-07-23 11:33:00,86.0,78.0,-100.00,WNW,290,5.0,12.0,77,0.00,,,0.53,,2013-07-23 16:33:00,
2013-07-23 11:43:00,86.0,78.0,-100.00,WNW,290,5.0,12.0,77,0.00,,,0.53,,2013-07-23 16:43:00,
2013-07-23 12:11:00,88.0,77.0,-100.00,WNW,289,8.0,15.0,71,0.00,,,0.36,,2013-07-23 17:11:00,
2013-07-23 12:22:00,88.0,77.0,-100.00,WNW,289,8.0,15.0,71,0.00,,,0.36,,2013-07-23 17:22:00,
2013-07-23 12:32:00,88.0,77.0,-100.00,WNW,289,8.0,15.0,71,0.00,,,0.36,,2013-07-23 17:32:00,
2013-07-23 12:42:00,88.0,77.0,-100.00,WNW,289,8.0,15.0,71,0.00,,,0.36,,2013-07-23 17:42:00,
2013-07-23 13:12:00,90.0,75.0,-100.00,NW,305,6.0,15.0,62,0.00,,,0.33,,2013-07-23 18:12:00,
2013-07-23 13:24:00,90.0,75.0,-100.00,NW,305,6.0,15.0,62,0.00,,,0.33,,2013-07-23 18:24:00,
2013-07-23 13:34:00,90.0,75.0,-100.00,NW,305,6.0,15.0,62,0.00,,,0.33,,2013-07-23 18:34:00,
2013-07-23 13:46:00,91.0,74.0,-100.00,WNW,301,6.0,14.0,58,0.00,,,0.33,,2013-07-23 18:46:00,
2013-07-23 14:15:00,91.0,74.0,-100.00,WNW,301,6.0,14.0,58,0.00,,,0.33,,2013-07-23 19:15:00,
2013-07-23 14:26:00,91.0,74.0,-100.00,WNW,301,6.0,14.0,58,0.00,,,0.33,,2013-07-23 19:26:00,
2013-07-23 14:33:00,91.0,74.0,-100.00,WNW,301,6.0,14.0,58,0.00,,,0.33,,2013-07-23 19:33:00,
2013-07-23 15:13:00,92.0,75.0,-100.00,NW,305,5.0,12.0,57,0.00,,,0.33,,2013-07-23 20:13:00,
2013-07-23 15:23:00,92.0,75.0,-100.00,NW,305,5.0,12.0,57,0.00,,,0.33,,2013-07-23 20:23:00,
2013-07-23 15:45:00,92.0,75.0,-100.00,NW,305,5.0,12.0,57,0.00,,,0.33,,2013-07-23 20:45:00,
2013-07-23 15:46:00,92.0,75.0,-100.00,WNW,300,5.0,12.0,57,0.00,,,0.10,,2013-07-23 20:46:00,
2013-07-23 16:14:00,92.0,75.0,-100.00,WNW,300,5.0,12.0,57,0.00,,,0.10,,2013-07-23 21:14:00,
2013-07-23 16:23:00,92.0,75.0,-100.00,WNW,300,5.0,12.0,57,0.00,,,0.10,,2013-07-23 21:23:00,
2013-07-23 16:36:00,92.0,75.0,-100.00,WNW,300,5.0,12.0,57,0.00,,,0.10,,2013-07-23 21:36:00,
2013-07-23 17:12:00,90.0,74.0,-100.00,WNW,298,4.0,13.0,59,0.00,,,0.10,,2013-07-23 22:12:00,
2013-07-23 17:24:00,90.0,74.0,-100.00,WNW,298,4.0,13.0,59,0.00,,,0.10,,2013-07-23 22:24:00,
2013-07-23 17:34:00,90.0,74.0,-100.00,WNW,298,4.0,13.0,59,0.00,,,0.10,,2013-07-23 22:34:00,
2013-07-23 17:45:00,90.0,74.0,-100.00,WNW,298,4.0,13.0,59,0.00,,,0.10,,2013-07-23 22:45:00,
2013-07-23 18:13:00,92.0,77.0,-100.00,WNW,299,3.0,10.0,61,0.00,,,0.03,,2013-07-23 23:13:00,
2013-07-23 18:24:00,92.0,77.0,-100.00,WNW,299,3.0,10.0,61,0.00,,,0.03,,2013-07-23 23:24:00,
2013-07-23 18:35:00,92.0,77.0,-100.00,WNW,299,3.0,10.0,61,0.00,,,0.03,,2013-07-23 23:35:00,
2013-07-23 18:44:00,92.0,77.0,-100.00,WNW,299,3.0,10.0,61,0.00,,,0.03,,2013-07-23 23:44:00,
2013-07-23 18:46:00,89.0,76.0,-100.00,West,260,2.0,5.0,65,0.00,,,0.00,,2013-07-23 23:46:00,
2013-07-23 19:14:00,89.0,76.0,-100.00,West,260,2.0,5.0,65,0.00,,,0.00,,2013-07-24 00:14:00,
2013-07-23 19:26:00,89.0,76.0,-100.00,West,260,2.0,5.0,65,0.00,,,0.00,,2013-07-24 00:26:00,
2013-07-23 19:34:00,89.0,76.0,-100.00,West,260,2.0,5.0,65,0.00,,,0.00,,2013-07-24 00:34:00,
2013-07-23 20:14:00,84.0,75.0,-100.00,WNW,288,1.0,4.0,74,0.00,,,0.00,,2013-07-24 01:14:00,
2013-07-23 20:24:00,84.0,75.0,-100.00,WNW,288,1.0,4.0,74,0.00,,,0.00,,2013-07-24 01:24:00,
2013-07-23 20:33:00,84.0,75.0,-100.00,WNW,288,1.0,4.0,74,0.00,,,0.00,,2013-07-24 01:33:00,
2013-07-23 20:46:00,79.0,77.0,-100.00,West,280,0.0,1.0,93,0.00,,,0.00,,2013-07-24 01:46:00,
2013-07-23 21:17:00,79.0,77.0,-100.00,West,280,0.0,1.0,93,0.00,,,0.00,,2013-07-24 02:17:00,
2013-07-23 21:38:00,79.0,77.0,-100.00,West,280,0.0,1.0,93,0.00,,,0.00,,2013-07-24 02:38:00,
2013-07-23 22:13:00,79.0,76.0,-100.00,WNW,294,2.0,4.0,92,0.00,,,0.00,,2013-07-24 03:13:00,
2013-07-23 22:24:00,79.0,76.0,-100.00,WNW,294,2.0,4.0,92,0.00,,,0.00,,2013-07-24 03:24:00,
2013-07-23 22:37:00,79.0,76.0,-100.00,WNW,294,2.0,4.0,92,0.00,,,0.00,,2013-07-24 03:37:00,
2013-07-23 22:45:00,79.0,76.0,-100.00,WNW,294,2.0,4.0,92,0.00,,,0.00,,2013-07-24 03:45:00,
2013-07-23 23:11:00,79.0,74.0,-100.00,WNW,283,1.0,6.0,84,0.00,,,0.00,,2013-07-24 04:11:00,
2013-07-23 23:22:00,79.0,74.0,-100.00,WNW,283,1.0,6.0,84,0.00,,,0.00,,2013-07-24 04:22:00,
2013-07-23 23:32:00,79.0,74.0,-100.00,WNW,283,1.0,6.0,84,0.00,,,0.00,,2013-07-24 04:32:00,
2013-07-23 23:43:00,79.0,74.0,-100.00,WNW,283,1.0,6.0,84,0.00,,,0.00,,2013-07-24 04:43:00,